Terminal Aerodrome Forecast
Issued by NWS Albany, NY

Home | Current Version | Previous Version | Text Only | Print | Product List | Glossary On
Versions: 1 2 3 4 5 6 7 8 9 10 11 12 13 14 15 16 17 18
330
FTUS41 KALY 090804 AAA
TAFGFL
TAF AMD
KGFL 090804Z 0908/1006 05004KT P6SM OVC050
     FM091000 VRB03KT 6SM -SN OVC025
     FM091500 VRB03KT P6SM BKN015 OVC025
     FM092200 VRB03KT P6SM BKN025 OVC050
     FM100300 VRB03KT 5SM BR OVC025=

USA.gov is the U.S. government's official web portal to all federal, state and local government web resources and services.